sensor_id;sensor_type;location;lat;lon;timestamp;P1;durP1;ratioP1;P2;durP2;ratioP2
25615;SDS011;13482;48.234;13.006;2023-04-06T00:01:20;5.10;;;2.10;;
25615;SDS011;13482;48.234;13.006;2023-04-06T00:03:47;3.95;;;2.25;;
25615;SDS011;13482;48.234;13.006;2023-04-06T00:06:14;4.43;;;2.10;;
25615;SDS011;13482;48.234;13.006;2023-04-06T00:08:42;4.60;;;2.05;;
25615;SDS011;13482;48.234;13.006;2023-04-06T00:11:10;3.15;;;1.83;;
25615;SDS011;13482;48.234;13.006;2023-04-06T00:13:38;4.03;;;1.92;;
25615;SDS011;13482;48.234;13.006;2023-04-06T00:16:05;4.07;;;2.30;;
25615;SDS011;13482;48.234;13.006;2023-04-06T00:18:33;3.65;;;2.50;;
25615;SDS011;13482;48.234;13.006;2023-04-06T00:21:00;3.35;;;2.30;;
25615;SDS011;13482;48.234;13.006;2023-04-06T00:23:28;4.20;;;2.58;;
25615;SDS011;13482;48.234;13.006;2023-04-06T00:25:55;4.40;;;2.30;;
25615;SDS011;13482;48.234;13.006;2023-04-06T00:28:22;4.65;;;2.70;;
25615;SDS011;13482;48.234;13.006;2023-04-06T00:30:53;4.30;;;2.40;;
25615;SDS011;13482;48.234;13.006;2023-04-06T00:33:22;3.75;;;2.20;;
25615;SDS011;13482;48.234;13.006;2023-04-06T00:35:50;3.17;;;1.85;;
25615;SDS011;13482;48.234;13.006;2023-04-06T00:38:17;3.88;;;2.35;;
25615;SDS011;13482;48.234;13.006;2023-04-06T00:40:46;3.28;;;1.90;;
25615;SDS011;13482;48.234;13.006;2023-04-06T00:43:13;3.17;;;1.88;;
25615;SDS011;13482;48.234;13.006;2023-04-06T00:48:28;3.60;;;2.15;;
25615;SDS011;13482;48.234;13.006;2023-04-06T00:50:57;2.55;;;1.75;;
25615;SDS011;13482;48.234;13.006;2023-04-06T00:53:25;3.47;;;1.90;;
25615;SDS011;13482;48.234;13.006;2023-04-06T00:55:52;2.83;;;1.63;;
25615;SDS011;13482;48.234;13.006;2023-04-06T00:58:19;3.00;;;1.80;;
25615;SDS011;13482;48.234;13.006;2023-04-06T01:00:47;2.88;;;1.67;;
25615;SDS011;13482;48.234;13.006;2023-04-06T01:03:14;3.28;;;1.77;;
25615;SDS011;13482;48.234;13.006;2023-04-06T01:05:42;2.83;;;1.63;;
25615;SDS011;13482;48.234;13.006;2023-04-06T01:08:10;3.13;;;1.60;;
25615;SDS011;13482;48.234;13.006;2023-04-06T01:10:37;3.28;;;1.70;;
25615;SDS011;13482;48.234;13.006;2023-04-06T01:13:04;3.05;;;1.60;;
25615;SDS011;13482;48.234;13.006;2023-04-06T01:15:32;2.03;;;1.50;;
25615;SDS011;13482;48.234;13.006;2023-04-06T01:18:01;2.70;;;1.55;;
25615;SDS011;13482;48.234;13.006;2023-04-06T01:20:31;2.50;;;1.60;;
25615;SDS011;13482;48.234;13.006;2023-04-06T01:22:58;2.47;;;1.50;;
25615;SDS011;13482;48.234;13.006;2023-04-06T01:25:25;2.53;;;1.42;;
25615;SDS011;13482;48.234;13.006;2023-04-06T01:27:52;1.70;;;1.20;;
25615;SDS011;13482;48.234;13.006;2023-04-06T01:30:20;2.67;;;1.60;;
25615;SDS011;13482;48.234;13.006;2023-04-06T01:32:47;2.33;;;1.30;;
25615;SDS011;13482;48.234;13.006;2023-04-06T01:35:14;2.47;;;1.52;;
25615;SDS011;13482;48.234;13.006;2023-04-06T01:37:42;1.83;;;1.20;;
25615;SDS011;13482;48.234;13.006;2023-04-06T01:40:10;3.13;;;1.70;;
25615;SDS011;13482;48.234;13.006;2023-04-06T01:42:38;4.78;;;1.50;;
25615;SDS011;13482;48.234;13.006;2023-04-06T01:45:05;2.40;;;1.30;;
25615;SDS011;13482;48.234;13.006;2023-04-06T01:47:33;2.65;;;1.55;;
25615;SDS011;13482;48.234;13.006;2023-04-06T01:50:00;2.92;;;1.45;;
25615;SDS011;13482;48.234;13.006;2023-04-06T01:52:32;2.42;;;1.40;;
25615;SDS011;13482;48.234;13.006;2023-04-06T01:54:59;2.92;;;1.65;;
25615;SDS011;13482;48.234;13.006;2023-04-06T01:57:27;2.95;;;1.60;;
25615;SDS011;13482;48.234;13.006;2023-04-06T01:59:54;2.28;;;1.35;;
25615;SDS011;13482;48.234;13.006;2023-04-06T02:02:21;2.53;;;1.38;;
25615;SDS011;13482;48.234;13.006;2023-04-06T02:04:48;2.55;;;1.52;;
25615;SDS011;13482;48.234;13.006;2023-04-06T02:07:16;2.20;;;1.42;;
25615;SDS011;13482;48.234;13.006;2023-04-06T02:09:43;2.97;;;1.58;;
25615;SDS011;13482;48.234;13.006;2023-04-06T02:12:10;1.88;;;1.20;;
25615;SDS011;13482;48.234;13.006;2023-04-06T02:14:38;2.05;;;1.30;;
25615;SDS011;13482;48.234;13.006;2023-04-06T02:17:05;2.70;;;1.40;;
25615;SDS011;13482;48.234;13.006;2023-04-06T02:19:32;3.00;;;1.70;;
25615;SDS011;13482;48.234;13.006;2023-04-06T02:21:59;3.05;;;1.52;;
25615;SDS011;13482;48.234;13.006;2023-04-06T02:24:26;2.13;;;1.40;;
25615;SDS011;13482;48.234;13.006;2023-04-06T02:26:53;2.40;;;1.40;;
25615;SDS011;13482;48.234;13.006;2023-04-06T02:29:20;3.92;;;1.55;;
25615;SDS011;13482;48.234;13.006;2023-04-06T02:31:47;2.30;;;1.42;;
25615;SDS011;13482;48.234;13.006;2023-04-06T02:34:15;3.05;;;1.50;;
25615;SDS011;13482;48.234;13.006;2023-04-06T02:36:47;2.05;;;1.30;;
25615;SDS011;13482;48.234;13.006;2023-04-06T02:39:14;2.97;;;1.43;;
25615;SDS011;13482;48.234;13.006;2023-04-06T02:41:41;2.80;;;1.60;;
25615;SDS011;13482;48.234;13.006;2023-04-06T02:44:09;4.00;;;1.45;;
25615;SDS011;13482;48.234;13.006;2023-04-06T02:46:36;2.67;;;1.40;;
25615;SDS011;13482;48.234;13.006;2023-04-06T02:49:03;2.78;;;1.40;;
25615;SDS011;13482;48.234;13.006;2023-04-06T02:51:31;2.50;;;1.30;;
25615;SDS011;13482;48.234;13.006;2023-04-06T02:53:59;2.75;;;1.70;;
25615;SDS011;13482;48.234;13.006;2023-04-06T02:56:26;3.00;;;1.60;;
25615;SDS011;13482;48.234;13.006;2023-04-06T02:58:53;1.77;;;1.23;;
25615;SDS011;13482;48.234;13.006;2023-04-06T03:01:21;2.25;;;1.40;;
25615;SDS011;13482;48.234;13.006;2023-04-06T03:03:48;2.60;;;1.30;;
25615;SDS011;13482;48.234;13.006;2023-04-06T03:06:16;1.95;;;1.10;;
25615;SDS011;13482;48.234;13.006;2023-04-06T03:08:43;1.90;;;1.20;;
25615;SDS011;13482;48.234;13.006;2023-04-06T03:11:10;2.25;;;1.38;;
25615;SDS011;13482;48.234;13.006;2023-04-06T03:13:37;2.45;;;1.35;;
25615;SDS011;13482;48.234;13.006;2023-04-06T03:16:05;2.47;;;1.50;;
25615;SDS011;13482;48.234;13.006;2023-04-06T03:18:32;3.78;;;1.42;;
25615;SDS011;13482;48.234;13.006;2023-04-06T03:20:59;3.35;;;1.58;;
25615;SDS011;13482;48.234;13.006;2023-04-06T03:23:27;3.35;;;1.70;;
25615;SDS011;13482;48.234;13.006;2023-04-06T03:25:54;3.45;;;1.73;;
25615;SDS011;13482;48.234;13.006;2023-04-06T03:28:21;2.75;;;1.63;;
25615;SDS011;13482;48.234;13.006;2023-04-06T03:30:49;4.32;;;1.83;;
25615;SDS011;13482;48.234;13.006;2023-04-06T03:33:16;4.13;;;2.08;;
25615;SDS011;13482;48.234;13.006;2023-04-06T03:35:43;4.13;;;2.00;;
25615;SDS011;13482;48.234;13.006;2023-04-06T03:38:10;3.08;;;1.60;;
25615;SDS011;13482;48.234;13.006;2023-04-06T03:40:38;2.80;;;1.60;;
25615;SDS011;13482;48.234;13.006;2023-04-06T03:43:05;4.00;;;1.73;;
25615;SDS011;13482;48.234;13.006;2023-04-06T03:45:33;2.97;;;1.67;;
25615;SDS011;13482;48.234;13.006;2023-04-06T03:48:01;3.58;;;1.90;;
25615;SDS011;13482;48.234;13.006;2023-04-06T03:50:28;2.75;;;1.85;;
25615;SDS011;13482;48.234;13.006;2023-04-06T03:52:55;3.53;;;1.88;;
25615;SDS011;13482;48.234;13.006;2023-04-06T03:55:22;3.90;;;1.83;;
25615;SDS011;13482;48.234;13.006;2023-04-06T03:57:50;3.17;;;1.80;;
25615;SDS011;13482;48.234;13.006;2023-04-06T04:00:17;3.35;;;1.50;;
25615;SDS011;13482;48.234;13.006;2023-04-06T04:02:44;2.03;;;1.42;;
25615;SDS011;13482;48.234;13.006;2023-04-06T04:05:11;3.17;;;1.52;;
25615;SDS011;13482;48.234;13.006;2023-04-06T04:07:39;3.05;;;1.60;;
25615;SDS011;13482;48.234;13.006;2023-04-06T04:10:06;2.85;;;1.67;;
25615;SDS011;13482;48.234;13.006;2023-04-06T04:12:34;2.38;;;1.50;;
25615;SDS011;13482;48.234;13.006;2023-04-06T04:15:01;3.28;;;1.60;;
25615;SDS011;13482;48.234;13.006;2023-04-06T04:17:29;2.95;;;1.70;;
25615;SDS011;13482;48.234;13.006;2023-04-06T04:19:56;2.63;;;2.00;;
25615;SDS011;13482;48.234;13.006;2023-04-06T04:22:24;2.35;;;1.58;;
25615;SDS011;13482;48.234;13.006;2023-04-06T04:24:51;2.30;;;1.48;;
25615;SDS011;13482;48.234;13.006;2023-04-06T04:27:18;2.47;;;1.70;;
25615;SDS011;13482;48.234;13.006;2023-04-06T04:29:45;2.58;;;1.50;;
25615;SDS011;13482;48.234;13.006;2023-04-06T04:32:12;2.58;;;1.55;;
25615;SDS011;13482;48.234;13.006;2023-04-06T04:34:40;2.88;;;1.65;;
25615;SDS011;13482;48.234;13.006;2023-04-06T04:37:07;2.60;;;1.70;;
25615;SDS011;13482;48.234;13.006;2023-04-06T04:39:34;2.70;;;1.70;;
25615;SDS011;13482;48.234;13.006;2023-04-06T04:42:01;2.60;;;1.55;;
25615;SDS011;13482;48.234;13.006;2023-04-06T04:44:29;2.55;;;1.40;;
25615;SDS011;13482;48.234;13.006;2023-04-06T04:46:56;2.83;;;1.40;;
25615;SDS011;13482;48.234;13.006;2023-04-06T04:49:23;2.60;;;1.50;;
25615;SDS011;13482;48.234;13.006;2023-04-06T04:51:50;2.60;;;1.50;;
25615;SDS011;13482;48.234;13.006;2023-04-06T04:54:18;2.03;;;1.52;;
25615;SDS011;13482;48.234;13.006;2023-04-06T04:56:46;3.28;;;1.88;;
25615;SDS011;13482;48.234;13.006;2023-04-06T04:59:13;2.88;;;1.98;;
25615;SDS011;13482;48.234;13.006;2023-04-06T05:01:41;3.30;;;1.80;;
25615;SDS011;13482;48.234;13.006;2023-04-06T05:04:22;3.65;;;1.98;;
25615;SDS011;13482;48.234;13.006;2023-04-06T05:06:49;4.10;;;2.40;;
25615;SDS011;13482;48.234;13.006;2023-04-06T05:09:17;3.38;;;1.95;;
25615;SDS011;13482;48.234;13.006;2023-04-06T05:11:44;2.90;;;1.98;;
25615;SDS011;13482;48.234;13.006;2023-04-06T05:14:11;5.93;;;2.10;;
25615;SDS011;13482;48.234;13.006;2023-04-06T05:16:38;3.05;;;2.03;;
25615;SDS011;13482;48.234;13.006;2023-04-06T05:19:06;5.43;;;2.13;;
25615;SDS011;13482;48.234;13.006;2023-04-06T05:21:33;2.83;;;1.90;;
25615;SDS011;13482;48.234;13.006;2023-04-06T05:24:01;3.05;;;2.00;;
25615;SDS011;13482;48.234;13.006;2023-04-06T05:26:28;3.22;;;1.90;;
25615;SDS011;13482;48.234;13.006;2023-04-06T05:28:56;2.83;;;1.83;;
25615;SDS011;13482;48.234;13.006;2023-04-06T05:31:23;3.33;;;1.95;;
25615;SDS011;13482;48.234;13.006;2023-04-06T05:33:50;3.55;;;2.20;;
25615;SDS011;13482;48.234;13.006;2023-04-06T05:36:17;3.58;;;2.30;;
25615;SDS011;13482;48.234;13.006;2023-04-06T05:38:44;4.05;;;2.20;;
25615;SDS011;13482;48.234;13.006;2023-04-06T05:41:11;4.28;;;2.30;;
25615;SDS011;13482;48.234;13.006;2023-04-06T05:43:39;2.60;;;1.98;;
25615;SDS011;13482;48.234;13.006;2023-04-06T05:46:06;3.22;;;2.10;;
25615;SDS011;13482;48.234;13.006;2023-04-06T05:48:34;3.08;;;2.00;;
25615;SDS011;13482;48.234;13.006;2023-04-06T05:51:01;2.97;;;1.90;;
25615;SDS011;13482;48.234;13.006;2023-04-06T05:53:28;3.55;;;2.13;;
25615;SDS011;13482;48.234;13.006;2023-04-06T05:55:55;2.80;;;1.85;;
25615;SDS011;13482;48.234;13.006;2023-04-06T05:58:22;3.22;;;1.95;;
25615;SDS011;13482;48.234;13.006;2023-04-06T06:00:49;3.22;;;1.90;;
25615;SDS011;13482;48.234;13.006;2023-04-06T06:03:16;3.80;;;2.17;;
25615;SDS011;13482;48.234;13.006;2023-04-06T06:05:44;4.30;;;2.40;;
25615;SDS011;13482;48.234;13.006;2023-04-06T06:08:11;3.90;;;2.13;;
25615;SDS011;13482;48.234;13.006;2023-04-06T06:10:38;3.58;;;2.15;;
25615;SDS011;13482;48.234;13.006;2023-04-06T06:13:06;3.40;;;2.22;;
25615;SDS011;13482;48.234;13.006;2023-04-06T06:15:33;3.88;;;2.25;;
25615;SDS011;13482;48.234;13.006;2023-04-06T06:18:01;2.95;;;1.95;;
25615;SDS011;13482;48.234;13.006;2023-04-06T06:20:28;5.55;;;2.75;;
25615;SDS011;13482;48.234;13.006;2023-04-06T06:22:55;4.43;;;2.90;;
25615;SDS011;13482;48.234;13.006;2023-04-06T06:25:22;5.25;;;2.70;;
25615;SDS011;13482;48.234;13.006;2023-04-06T06:27:50;5.20;;;3.00;;
25615;SDS011;13482;48.234;13.006;2023-04-06T06:30:17;4.47;;;2.75;;
25615;SDS011;13482;48.234;13.006;2023-04-06T06:32:48;4.57;;;2.83;;
25615;SDS011;13482;48.234;13.006;2023-04-06T06:35:16;3.45;;;2.38;;
25615;SDS011;13482;48.234;13.006;2023-04-06T06:37:44;3.47;;;2.38;;
25615;SDS011;13482;48.234;13.006;2023-04-06T06:40:11;3.90;;;2.38;;
25615;SDS011;13482;48.234;13.006;2023-04-06T06:42:39;3.60;;;2.38;;
25615;SDS011;13482;48.234;13.006;2023-04-06T06:45:06;4.75;;;2.85;;
25615;SDS011;13482;48.234;13.006;2023-04-06T06:47:36;4.88;;;2.67;;
25615;SDS011;13482;48.234;13.006;2023-04-06T06:50:03;4.05;;;2.47;;
25615;SDS011;13482;48.234;13.006;2023-04-06T06:52:32;3.78;;;2.58;;
25615;SDS011;13482;48.234;13.006;2023-04-06T06:54:59;3.10;;;2.17;;
25615;SDS011;13482;48.234;13.006;2023-04-06T06:57:27;4.25;;;2.50;;
25615;SDS011;13482;48.234;13.006;2023-04-06T06:59:54;4.35;;;2.47;;
25615;SDS011;13482;48.234;13.006;2023-04-06T07:02:21;4.68;;;2.40;;
25615;SDS011;13482;48.234;13.006;2023-04-06T07:04:49;5.43;;;2.90;;
25615;SDS011;13482;48.234;13.006;2023-04-06T07:07:16;4.43;;;2.60;;
25615;SDS011;13482;48.234;13.006;2023-04-06T07:09:43;4.43;;;2.83;;
25615;SDS011;13482;48.234;13.006;2023-04-06T07:12:11;4.53;;;2.50;;
25615;SDS011;13482;48.234;13.006;2023-04-06T07:14:38;4.32;;;2.78;;
25615;SDS011;13482;48.234;13.006;2023-04-06T07:17:05;3.45;;;2.80;;
25615;SDS011;13482;48.234;13.006;2023-04-06T07:19:32;5.25;;;2.80;;
25615;SDS011;13482;48.234;13.006;2023-04-06T07:21:59;4.10;;;2.67;;
25615;SDS011;13482;48.234;13.006;2023-04-06T07:24:28;3.53;;;2.60;;
25615;SDS011;13482;48.234;13.006;2023-04-06T07:26:57;3.72;;;2.78;;
25615;SDS011;13482;48.234;13.006;2023-04-06T07:29:26;4.10;;;2.72;;
25615;SDS011;13482;48.234;13.006;2023-04-06T07:31:54;3.65;;;2.72;;
25615;SDS011;13482;48.234;13.006;2023-04-06T07:34:21;4.60;;;3.00;;
25615;SDS011;13482;48.234;13.006;2023-04-06T07:36:49;5.07;;;2.90;;
25615;SDS011;13482;48.234;13.006;2023-04-06T07:39:19;4.63;;;2.60;;
25615;SDS011;13482;48.234;13.006;2023-04-06T07:41:46;3.75;;;2.58;;
25615;SDS011;13482;48.234;13.006;2023-04-06T07:44:13;3.67;;;2.53;;
25615;SDS011;13482;48.234;13.006;2023-04-06T07:46:41;4.78;;;2.90;;
25615;SDS011;13482;48.234;13.006;2023-04-06T07:49:08;5.20;;;2.55;;
25615;SDS011;13482;48.234;13.006;2023-04-06T07:51:37;4.72;;;2.90;;
25615;SDS011;13482;48.234;13.006;2023-04-06T07:54:05;4.50;;;3.00;;
25615;SDS011;13482;48.234;13.006;2023-04-06T07:56:33;5.10;;;2.97;;
25615;SDS011;13482;48.234;13.006;2023-04-06T07:59:00;6.72;;;2.55;;
25615;SDS011;13482;48.234;13.006;2023-04-06T08:01:28;7.55;;;3.03;;
25615;SDS011;13482;48.234;13.006;2023-04-06T08:03:56;4.10;;;2.97;;
25615;SDS011;13482;48.234;13.006;2023-04-06T08:06:24;3.90;;;2.72;;
25615;SDS011;13482;48.234;13.006;2023-04-06T08:08:52;4.55;;;2.78;;
25615;SDS011;13482;48.234;13.006;2023-04-06T08:11:19;4.13;;;2.80;;
25615;SDS011;13482;48.234;13.006;2023-04-06T08:13:47;4.38;;;2.92;;
25615;SDS011;13482;48.234;13.006;2023-04-06T08:16:14;4.05;;;2.80;;
25615;SDS011;13482;48.234;13.006;2023-04-06T08:18:41;5.97;;;2.97;;
25615;SDS011;13482;48.234;13.006;2023-04-06T08:21:09;4.35;;;2.90;;
25615;SDS011;13482;48.234;13.006;2023-04-06T08:23:36;5.70;;;2.70;;
25615;SDS011;13482;48.234;13.006;2023-04-06T08:26:03;4.38;;;2.80;;
25615;SDS011;13482;48.234;13.006;2023-04-06T08:28:30;4.22;;;2.88;;
25615;SDS011;13482;48.234;13.006;2023-04-06T08:30:58;4.40;;;3.15;;
25615;SDS011;13482;48.234;13.006;2023-04-06T08:33:25;3.67;;;2.72;;
25615;SDS011;13482;48.234;13.006;2023-04-06T08:35:52;5.03;;;3.00;;
25615;SDS011;13482;48.234;13.006;2023-04-06T08:38:20;4.30;;;2.90;;
25615;SDS011;13482;48.234;13.006;2023-04-06T08:40:47;3.95;;;2.85;;
25615;SDS011;13482;48.234;13.006;2023-04-06T08:43:16;3.83;;;2.65;;
25615;SDS011;13482;48.234;13.006;2023-04-06T08:45:45;4.20;;;2.72;;
25615;SDS011;13482;48.234;13.006;2023-04-06T08:48:12;5.50;;;2.47;;
25615;SDS011;13482;48.234;13.006;2023-04-06T08:50:40;4.72;;;2.47;;
25615;SDS011;13482;48.234;13.006;2023-04-06T08:53:08;3.72;;;2.40;;
25615;SDS011;13482;48.234;13.006;2023-04-06T08:55:37;4.50;;;2.42;;
25615;SDS011;13482;48.234;13.006;2023-04-06T09:00:39;4.65;;;2.47;;
25615;SDS011;13482;48.234;13.006;2023-04-06T09:03:07;3.80;;;2.65;;
25615;SDS011;13482;48.234;13.006;2023-04-06T09:05:35;3.67;;;2.40;;
25615;SDS011;13482;48.234;13.006;2023-04-06T09:08:02;3.22;;;2.15;;
25615;SDS011;13482;48.234;13.006;2023-04-06T09:10:29;3.13;;;2.30;;
25615;SDS011;13482;48.234;13.006;2023-04-06T09:13:04;2.90;;;2.10;;
25615;SDS011;13482;48.234;13.006;2023-04-06T09:15:32;2.90;;;2.13;;
25615;SDS011;13482;48.234;13.006;2023-04-06T09:18:00;3.58;;;2.33;;
25615;SDS011;13482;48.234;13.006;2023-04-06T09:20:27;3.45;;;2.63;;
25615;SDS011;13482;48.234;13.006;2023-04-06T09:22:54;3.80;;;2.25;;
25615;SDS011;13482;48.234;13.006;2023-04-06T09:25:22;3.78;;;2.50;;
25615;SDS011;13482;48.234;13.006;2023-04-06T09:27:59;5.53;;;2.42;;
25615;SDS011;13482;48.234;13.006;2023-04-06T09:30:29;4.20;;;2.20;;
25615;SDS011;13482;48.234;13.006;2023-04-06T09:32:56;3.58;;;1.77;;
25615;SDS011;13482;48.234;13.006;2023-04-06T09:35:26;3.78;;;2.08;;
25615;SDS011;13482;48.234;13.006;2023-04-06T09:37:53;2.75;;;1.70;;
25615;SDS011;13482;48.234;13.006;2023-04-06T09:40:21;2.90;;;1.75;;
25615;SDS011;13482;48.234;13.006;2023-04-06T09:42:49;4.57;;;1.65;;
25615;SDS011;13482;48.234;13.006;2023-04-06T09:45:19;2.55;;;1.70;;
25615;SDS011;13482;48.234;13.006;2023-04-06T09:47:47;3.03;;;1.73;;
25615;SDS011;13482;48.234;13.006;2023-04-06T09:50:18;2.38;;;1.30;;
25615;SDS011;13482;48.234;13.006;2023-04-06T09:52:47;2.03;;;1.38;;
25615;SDS011;13482;48.234;13.006;2023-04-06T09:55:20;3.28;;;1.58;;
25615;SDS011;13482;48.234;13.006;2023-04-06T10:00:39;2.10;;;1.30;;
25615;SDS011;13482;48.234;13.006;2023-04-06T10:03:31;2.85;;;1.65;;
25615;SDS011;13482;48.234;13.006;2023-04-06T10:06:27;2.38;;;1.60;;
25615;SDS011;13482;48.234;13.006;2023-04-06T10:08:59;2.45;;;1.60;;
25615;SDS011;13482;48.234;13.006;2023-04-06T10:11:30;2.03;;;1.40;;
25615;SDS011;13482;48.234;13.006;2023-04-06T10:13:57;2.90;;;1.80;;
25615;SDS011;13482;48.234;13.006;2023-04-06T10:16:25;2.67;;;1.85;;
25615;SDS011;13482;48.234;13.006;2023-04-06T10:18:55;1.90;;;1.42;;
25615;SDS011;13482;48.234;13.006;2023-04-06T10:21:28;3.10;;;1.70;;
25615;SDS011;13482;48.234;13.006;2023-04-06T10:23:58;2.58;;;1.65;;
25615;SDS011;13482;48.234;13.006;2023-04-06T10:26:28;3.30;;;2.05;;
25615;SDS011;13482;48.234;13.006;2023-04-06T10:29:01;2.88;;;1.77;;
25615;SDS011;13482;48.234;13.006;2023-04-06T10:31:32;2.92;;;1.85;;
25615;SDS011;13482;48.234;13.006;2023-04-06T10:34:00;2.63;;;1.90;;
25615;SDS011;13482;48.234;13.006;2023-04-06T10:36:32;2.58;;;1.88;;
25615;SDS011;13482;48.234;13.006;2023-04-06T10:39:04;3.30;;;2.03;;
25615;SDS011;13482;48.234;13.006;2023-04-06T10:44:20;2.72;;;1.67;;
25615;SDS011;13482;48.234;13.006;2023-04-06T10:46:52;2.55;;;1.70;;
25615;SDS011;13482;48.234;13.006;2023-04-06T10:49:21;2.35;;;1.63;;
25615;SDS011;13482;48.234;13.006;2023-04-06T10:51:53;2.60;;;1.55;;
25615;SDS011;13482;48.234;13.006;2023-04-06T10:54:22;2.80;;;1.73;;
25615;SDS011;13482;48.234;13.006;2023-04-06T10:56:52;2.45;;;1.95;;
25615;SDS011;13482;48.234;13.006;2023-04-06T10:59:20;3.38;;;1.85;;
25615;SDS011;13482;48.234;13.006;2023-04-06T11:01:48;2.10;;;1.55;;
25615;SDS011;13482;48.234;13.006;2023-04-06T11:04:19;2.78;;;1.80;;
25615;SDS011;13482;48.234;13.006;2023-04-06T11:06:47;3.22;;;1.75;;
25615;SDS011;13482;48.234;13.006;2023-04-06T11:09:26;4.20;;;2.10;;
25615;SDS011;13482;48.234;13.006;2023-04-06T11:11:55;3.20;;;2.13;;
25615;SDS011;13482;48.234;13.006;2023-04-06T11:14:23;3.33;;;2.22;;
25615;SDS011;13482;48.234;13.006;2023-04-06T11:16:50;5.07;;;2.35;;
25615;SDS011;13482;48.234;13.006;2023-04-06T11:19:18;3.17;;;2.20;;
25615;SDS011;13482;48.234;13.006;2023-04-06T11:21:46;4.50;;;2.30;;
25615;SDS011;13482;48.234;13.006;2023-04-06T11:24:16;4.22;;;2.28;;
25615;SDS011;13482;48.234;13.006;2023-04-06T11:26:51;2.75;;;1.90;;
25615;SDS011;13482;48.234;13.006;2023-04-06T11:29:28;2.92;;;1.70;;
25615;SDS011;13482;48.234;13.006;2023-04-06T11:32:01;2.67;;;1.70;;
25615;SDS011;13482;48.234;13.006;2023-04-06T11:34:33;3.08;;;1.90;;
25615;SDS011;13482;48.234;13.006;2023-04-06T11:37:08;3.47;;;2.20;;
25615;SDS011;13482;48.234;13.006;2023-04-06T11:39:48;3.38;;;2.25;;
25615;SDS011;13482;48.234;13.006;2023-04-06T11:42:25;2.53;;;2.03;;
25615;SDS011;13482;48.234;13.006;2023-04-06T11:44:57;3.17;;;1.80;;
25615;SDS011;13482;48.234;13.006;2023-04-06T11:47:35;3.30;;;2.20;;
25615;SDS011;13482;48.234;13.006;2023-04-06T11:50:07;3.20;;;2.40;;
25615;SDS011;13482;48.234;13.006;2023-04-06T11:52:38;3.80;;;2.10;;
25615;SDS011;13482;48.234;13.006;2023-04-06T11:55:13;3.40;;;2.60;;
25615;SDS011;13482;48.234;13.006;2023-04-06T11:57:43;2.60;;;2.00;;
25615;SDS011;13482;48.234;13.006;2023-04-06T12:00:11;3.88;;;2.10;;
25615;SDS011;13482;48.234;13.006;2023-04-06T12:02:39;3.17;;;2.17;;
25615;SDS011;13482;48.234;13.006;2023-04-06T12:05:12;2.70;;;2.05;;
25615;SDS011;13482;48.234;13.006;2023-04-06T12:07:40;3.65;;;2.60;;
25615;SDS011;13482;48.234;13.006;2023-04-06T12:10:12;2.90;;;1.92;;
25615;SDS011;13482;48.234;13.006;2023-04-06T12:12:39;2.95;;;2.00;;
25615;SDS011;13482;48.234;13.006;2023-04-06T12:15:06;2.70;;;2.28;;
25615;SDS011;13482;48.234;13.006;2023-04-06T12:17:34;3.03;;;2.03;;
25615;SDS011;13482;48.234;13.006;2023-04-06T12:20:02;2.80;;;2.10;;
25615;SDS011;13482;48.234;13.006;2023-04-06T12:22:47;4.13;;;2.38;;
25615;SDS011;13482;48.234;13.006;2023-04-06T12:25:14;4.40;;;2.80;;
25615;SDS011;13482;48.234;13.006;2023-04-06T12:27:41;3.17;;;2.55;;
25615;SDS011;13482;48.234;13.006;2023-04-06T12:30:09;3.78;;;2.78;;
25615;SDS011;13482;48.234;13.006;2023-04-06T12:32:37;3.45;;;2.50;;
25615;SDS011;13482;48.234;13.006;2023-04-06T12:35:04;3.20;;;2.60;;
25615;SDS011;13482;48.234;13.006;2023-04-06T12:37:31;2.95;;;2.28;;
25615;SDS011;13482;48.234;13.006;2023-04-06T12:39:59;3.10;;;2.47;;
25615;SDS011;13482;48.234;13.006;2023-04-06T12:42:26;3.40;;;2.50;;
25615;SDS011;13482;48.234;13.006;2023-04-06T12:44:53;3.50;;;2.92;;
25615;SDS011;13482;48.234;13.006;2023-04-06T12:47:21;4.85;;;3.17;;
25615;SDS011;13482;48.234;13.006;2023-04-06T12:49:49;4.30;;;3.08;;
25615;SDS011;13482;48.234;13.006;2023-04-06T12:52:16;3.80;;;2.65;;
25615;SDS011;13482;48.234;13.006;2023-04-06T12:54:43;7.03;;;2.83;;
25615;SDS011;13482;48.234;13.006;2023-04-06T12:57:11;3.78;;;2.92;;
25615;SDS011;13482;48.234;13.006;2023-04-06T12:59:38;4.75;;;3.10;;
25615;SDS011;13482;48.234;13.006;2023-04-06T13:02:11;3.78;;;3.08;;
25615;SDS011;13482;48.234;13.006;2023-04-06T13:04:38;3.63;;;2.25;;
25615;SDS011;13482;48.234;13.006;2023-04-06T13:07:05;3.65;;;2.70;;
25615;SDS011;13482;48.234;13.006;2023-04-06T13:09:33;3.90;;;2.63;;
25615;SDS011;13482;48.234;13.006;2023-04-06T13:12:00;4.22;;;3.40;;
25615;SDS011;13482;48.234;13.006;2023-04-06T13:14:27;4.50;;;2.97;;
25615;SDS011;13482;48.234;13.006;2023-04-06T13:16:54;4.47;;;3.45;;
25615;SDS011;13482;48.234;13.006;2023-04-06T13:19:21;4.00;;;2.72;;
25615;SDS011;13482;48.234;13.006;2023-04-06T13:21:48;3.83;;;2.50;;
25615;SDS011;13482;48.234;13.006;2023-04-06T13:24:16;3.38;;;2.58;;
25615;SDS011;13482;48.234;13.006;2023-04-06T13:26:43;3.55;;;2.63;;
25615;SDS011;13482;48.234;13.006;2023-04-06T13:29:10;3.33;;;2.15;;
25615;SDS011;13482;48.234;13.006;2023-04-06T13:31:37;3.00;;;2.15;;
25615;SDS011;13482;48.234;13.006;2023-04-06T13:34:05;3.97;;;2.78;;
25615;SDS011;13482;48.234;13.006;2023-04-06T13:36:33;3.72;;;2.83;;
25615;SDS011;13482;48.234;13.006;2023-04-06T13:39:00;3.70;;;3.17;;
25615;SDS011;13482;48.234;13.006;2023-04-06T13:41:27;3.65;;;2.67;;
25615;SDS011;13482;48.234;13.006;2023-04-06T13:43:54;3.00;;;2.40;;
25615;SDS011;13482;48.234;13.006;2023-04-06T13:46:21;3.67;;;2.55;;
25615;SDS011;13482;48.234;13.006;2023-04-06T13:48:50;3.53;;;2.50;;
25615;SDS011;13482;48.234;13.006;2023-04-06T13:51:17;3.67;;;2.83;;
25615;SDS011;13482;48.234;13.006;2023-04-06T13:53:45;3.72;;;3.05;;
25615;SDS011;13482;48.234;13.006;2023-04-06T13:56:12;3.50;;;2.53;;
25615;SDS011;13482;48.234;13.006;2023-04-06T13:58:39;2.92;;;2.17;;
25615;SDS011;13482;48.234;13.006;2023-04-06T14:01:07;3.00;;;2.50;;
25615;SDS011;13482;48.234;13.006;2023-04-06T14:03:36;3.10;;;2.50;;
25615;SDS011;13482;48.234;13.006;2023-04-06T14:06:09;3.42;;;2.70;;
25615;SDS011;13482;48.234;13.006;2023-04-06T14:08:52;3.65;;;2.90;;
25615;SDS011;13482;48.234;13.006;2023-04-06T14:11:19;4.50;;;3.00;;
25615;SDS011;13482;48.234;13.006;2023-04-06T14:13:47;2.80;;;2.13;;
25615;SDS011;13482;48.234;13.006;2023-04-06T14:16:14;3.28;;;2.30;;
25615;SDS011;13482;48.234;13.006;2023-04-06T14:18:41;2.72;;;2.03;;
25615;SDS011;13482;48.234;13.006;2023-04-06T14:21:09;2.95;;;2.22;;
25615;SDS011;13482;48.234;13.006;2023-04-06T14:23:36;3.75;;;2.45;;
25615;SDS011;13482;48.234;13.006;2023-04-06T14:26:04;3.88;;;2.90;;
25615;SDS011;13482;48.234;13.006;2023-04-06T14:28:34;3.38;;;2.50;;
25615;SDS011;13482;48.234;13.006;2023-04-06T14:31:09;3.83;;;2.13;;
25615;SDS011;13482;48.234;13.006;2023-04-06T14:33:42;3.33;;;2.30;;
25615;SDS011;13482;48.234;13.006;2023-04-06T14:36:09;3.28;;;2.38;;
25615;SDS011;13482;48.234;13.006;2023-04-06T14:38:37;3.72;;;2.63;;
25615;SDS011;13482;48.234;13.006;2023-04-06T14:41:05;3.45;;;2.60;;
25615;SDS011;13482;48.234;13.006;2023-04-06T14:43:34;2.65;;;2.15;;
25615;SDS011;13482;48.234;13.006;2023-04-06T14:46:01;3.70;;;2.35;;
25615;SDS011;13482;48.234;13.006;2023-04-06T14:48:29;4.55;;;2.28;;
25615;SDS011;13482;48.234;13.006;2023-04-06T14:50:56;3.58;;;2.45;;